Terminal Aerodrome Forecast
Issued by NWS Wichita, KS

Home | Current Version | Previous Version | Text Only | Print | Product List | Glossary On
Versions: 1 2 3 4 5 6 7 8 9 10 11 12 13 14 15 16 17 18 19 20 21 22 23 24 25
000
FTUS43 KICT 291737
TAFICT
TAF
KICT 291737Z 2918/3018 16008KT P6SM SCT030 BKN120
     FM300200 17005KT P6SM VCTS BKN035CB
     FM300500 35014G20KT P6SM VCTS BKN035CB
     FM300800 35015G21KT P6SM SCT040=

USA.gov is the U.S. government's official web portal to all federal, state and local government web resources and services.